createdAt,value
2023-03-06T00:01:20.382Z,-0.90
2023-03-06T00:05:25.418Z,-1.70
2023-03-06T00:09:23.400Z,-2.34
2023-03-06T00:13:23.371Z,-2.19
2023-03-06T00:17:21.353Z,0.35
2023-03-06T00:21:22.343Z,2.17
2023-03-06T00:25:21.324Z,3.01
2023-03-06T00:29:19.339Z,1.70
2023-03-06T00:33:17.317Z,0.11
2023-03-06T00:37:17.518Z,-1.08
2023-03-06T00:41:20.288Z,-1.90
2023-03-06T00:45:18.315Z,-2.57
2023-03-06T00:49:16.292Z,-3.10
2023-03-06T00:53:14.313Z,-3.55
2023-03-06T00:57:12.361Z,-3.91
2023-03-06T01:01:10.366Z,-3.72
2023-03-06T01:05:08.350Z,-1.78
2023-03-06T01:09:06.256Z,-0.26
2023-03-06T01:13:04.227Z,0.86
2023-03-06T01:17:02.347Z,2.05
2023-03-06T01:21:00.326Z,3.05
2023-03-06T01:24:59.326Z,2.29
2023-03-06T01:28:57.208Z,0.53
2023-03-06T01:32:55.253Z,-0.69
2023-03-06T01:36:53.224Z,-1.65
2023-03-06T01:40:52.407Z,-2.43
2023-03-06T01:44:50.206Z,-3.10
2023-03-06T01:48:48.233Z,-3.66
2023-03-06T01:52:50.173Z,-4.13
2023-03-06T01:56:48.206Z,-4.56
2023-03-06T02:00:46.245Z,-3.47
2023-03-06T02:04:44.243Z,-0.84
2023-03-06T02:08:43.143Z,0.81
2023-03-06T02:12:41.136Z,1.96
2023-03-06T02:16:42.232Z,2.87
2023-03-06T02:20:58.189Z,3.59
2023-03-06T02:25:38.241Z,4.16
2023-03-06T02:29:40.166Z,4.62
2023-03-06T02:33:41.131Z,4.96
2023-03-06T02:37:42.133Z,5.13
2023-03-06T02:41:40.115Z,3.44
2023-03-06T02:45:52.256Z,1.52
2023-03-06T02:49:50.119Z,0.06
2023-03-06T02:53:48.144Z,-1.03
2023-03-06T02:57:46.124Z,-1.98
2023-03-06T03:01:44.161Z,-2.84
2023-03-06T03:05:42.092Z,-3.50
2023-03-06T03:09:46.096Z,-4.02
2023-03-06T03:13:44.076Z,-4.41
2023-03-06T03:17:46.100Z,-4.47
2023-03-06T03:21:45.034Z,-3.14
2023-03-06T03:25:46.063Z,-2.21
2023-03-06T03:29:44.006Z,-0.74
2023-03-06T03:33:43.078Z,0.76
2023-03-06T03:37:42.046Z,1.60
2023-03-06T03:41:40.044Z,2.65
2023-03-06T03:45:38.025Z,3.45
2023-03-06T03:49:36.091Z,3.87
2023-03-06T03:53:35.138Z,4.14
2023-03-06T03:57:33.118Z,4.52
2023-03-06T04:01:31.096Z,4.81
2023-03-06T04:05:31.129Z,5.09
2023-03-06T04:09:29.977Z,4.73
2023-03-06T04:13:29.006Z,2.75
2023-03-06T04:17:27.003Z,1.16
2023-03-06T04:21:24.988Z,-0.04
2023-03-06T04:25:23.075Z,-1.02
2023-03-06T04:29:22.020Z,-1.90
2023-03-06T04:33:20.926Z,-2.64
2023-03-06T04:37:18.979Z,-3.22
2023-03-06T04:41:16.944Z,-3.69
2023-03-06T04:45:14.968Z,-4.07
2023-03-06T04:49:12.924Z,-4.38
2023-03-06T04:53:11.061Z,-3.71
2023-03-06T04:57:08.948Z,-1.97
2023-03-06T05:01:07.032Z,-0.07
2023-03-06T05:05:04.898Z,1.39
2023-03-06T05:09:02.931Z,2.28
2023-03-06T05:13:00.970Z,2.23
2023-03-06T05:16:58.937Z,0.40
2023-03-06T05:20:56.857Z,-0.85
2023-03-06T05:24:54.901Z,-1.70
2023-03-06T05:28:53.854Z,-2.07
2023-03-06T05:32:51.929Z,-1.02
2023-03-06T05:36:49.807Z,0.71
2023-03-06T05:40:47.862Z,2.45
2023-03-06T05:44:47.861Z,3.55
2023-03-06T05:48:46.966Z,2.46
2023-03-06T05:52:44.826Z,1.00
2023-03-06T05:56:43.000Z,0.31
2023-03-06T06:00:40.779Z,2.12
2023-03-06T06:04:39.830Z,3.74
2023-03-06T06:08:37.850Z,4.17
2023-03-06T06:12:35.843Z,2.50
2023-03-06T06:16:33.945Z,1.40
2023-03-06T06:20:31.921Z,0.50
2023-03-06T06:24:30.819Z,1.18
2023-03-06T06:28:31.165Z,3.24
2023-03-06T06:32:28.918Z,4.47
2023-03-06T06:36:35.815Z,3.27
2023-03-06T06:40:33.721Z,2.08
2023-03-06T06:44:32.816Z,1.44
2023-03-06T06:48:30.885Z,1.21
2023-03-06T06:52:28.873Z,2.71
2023-03-06T06:56:26.840Z,4.69
2023-03-06T07:00:06.147Z,4.81
2023-03-06T07:03:29.970Z,3.37
2023-03-06T07:06:57.116Z,2.48
2023-03-06T07:10:21.270Z,2.04
2023-03-06T07:13:49.073Z,1.72
2023-03-06T07:17:12.821Z,1.68
2023-03-06T07:20:37.172Z,1.67
2023-03-06T07:24:01.613Z,1.67
2023-03-06T07:27:26.444Z,1.68
2023-03-06T07:30:50.399Z,2.86
2023-03-06T07:34:15.906Z,5.09
2023-03-06T07:37:39.766Z,6.38
2023-03-06T07:41:05.193Z,5.46
2023-03-06T07:44:28.972Z,4.52
2023-03-06T07:47:53.789Z,4.02
2023-03-06T07:51:21.153Z,3.68
2023-03-06T07:54:44.997Z,3.44
2023-03-06T07:58:09.034Z,3.36
2023-03-06T08:01:33.172Z,3.47
2023-03-06T08:04:57.836Z,3.54
2023-03-06T08:08:21.682Z,3.57
2023-03-06T08:11:46.190Z,3.51
2023-03-06T08:15:12.361Z,3.52
2023-03-06T08:18:39.597Z,3.53
2023-03-06T08:22:05.971Z,3.57
2023-03-06T08:25:29.782Z,3.68
2023-03-06T08:28:55.850Z,3.73
2023-03-06T08:32:19.772Z,3.77
2023-03-06T08:35:44.127Z,3.78
2023-03-06T08:39:08.635Z,3.71
2023-03-06T08:42:33.429Z,3.74
2023-03-06T08:45:59.042Z,3.68
2023-03-06T08:49:23.216Z,3.66
2023-03-06T08:52:47.116Z,3.54
2023-03-06T08:56:37.597Z,3.44
2023-03-06T09:00:02.432Z,3.71
2023-03-06T09:03:27.336Z,5.81
2023-03-06T09:06:51.358Z,6.68
2023-03-06T09:10:17.363Z,6.08
2023-03-06T09:13:43.089Z,5.72
2023-03-06T09:17:06.944Z,5.60
2023-03-06T09:20:30.901Z,5.66
2023-03-06T09:23:54.865Z,5.74
2023-03-06T09:27:18.945Z,5.77
2023-03-06T09:30:42.888Z,5.76
2023-03-06T09:34:06.919Z,5.70
2023-03-06T09:37:31.198Z,5.50
2023-03-06T09:41:14.126Z,5.20
2023-03-06T09:44:41.194Z,4.94
2023-03-06T09:48:14.621Z,4.91
2023-03-06T09:51:51.129Z,5.18
2023-03-06T09:55:22.348Z,5.42
2023-03-06T09:58:58.512Z,5.50
2023-03-06T10:02:29.186Z,5.71
2023-03-06T10:06:12.314Z,5.98
2023-03-06T10:09:44.515Z,6.22
2023-03-06T10:13:35.015Z,6.22
2023-03-06T10:16:59.672Z,6.28
2023-03-06T10:20:29.536Z,6.39
2023-03-06T10:24:22.333Z,6.33
2023-03-06T10:27:49.608Z,6.26
2023-03-06T10:31:22.341Z,6.11
2023-03-06T10:34:46.899Z,5.91
2023-03-06T10:38:37.758Z,5.86
2023-03-06T10:42:01.629Z,5.90
2023-03-06T10:45:25.560Z,5.95
2023-03-06T10:48:59.489Z,6.07
2023-03-06T10:52:24.659Z,6.26
2023-03-06T10:55:54.061Z,6.35
2023-03-06T10:59:35.855Z,6.41
2023-03-06T11:03:14.542Z,6.30
2023-03-06T11:06:38.388Z,6.17
2023-03-06T11:10:08.901Z,5.97
2023-03-06T11:13:36.721Z,5.73
2023-03-06T11:17:00.759Z,5.40
2023-03-06T11:20:48.517Z,5.10
2023-03-06T11:24:21.564Z,4.87
2023-03-06T11:27:48.129Z,4.67
2023-03-06T11:31:22.898Z,4.47
2023-03-06T11:35:00.260Z,4.35
2023-03-06T11:38:43.312Z,4.24
2023-03-06T11:42:39.649Z,4.14
2023-03-06T11:46:13.116Z,4.02
2023-03-06T11:50:08.984Z,4.15
2023-03-06T11:53:36.920Z,6.40
2023-03-06T11:57:16.666Z,8.13
2023-03-06T12:01:33.885Z,8.74
2023-03-06T12:05:27.892Z,7.31
2023-03-06T12:09:13.005Z,6.14
2023-03-06T12:13:14.633Z,5.44
2023-03-06T12:16:54.042Z,4.87
2023-03-06T12:20:53.842Z,4.46
2023-03-06T12:24:43.747Z,4.86
2023-03-06T12:28:32.346Z,6.80
2023-03-06T12:32:15.313Z,8.15
2023-03-06T12:36:11.025Z,8.06
2023-03-06T12:39:58.025Z,6.72
2023-03-06T12:44:02.412Z,5.60
2023-03-06T12:47:29.158Z,4.89
2023-03-06T12:50:53.592Z,4.99
2023-03-06T12:54:20.338Z,6.37
2023-03-06T12:57:44.266Z,7.58
2023-03-06T13:01:40.676Z,8.42
2023-03-06T13:05:13.707Z,7.24
2023-03-06T13:08:44.324Z,6.10
2023-03-06T13:12:37.145Z,5.30
2023-03-06T13:16:19.320Z,4.89
2023-03-06T13:19:43.274Z,6.69
2023-03-06T13:23:31.801Z,8.44
2023-03-06T13:27:23.272Z,7.99
2023-03-06T13:30:47.345Z,6.53
2023-03-06T13:34:33.142Z,5.65
2023-03-06T13:37:58.264Z,5.03
2023-03-06T13:41:22.134Z,4.94
2023-03-06T13:44:46.477Z,6.53
2023-03-06T13:48:45.278Z,8.07
2023-03-06T13:52:19.485Z,9.23
2023-03-06T13:56:01.006Z,8.10
2023-03-06T14:00:09.320Z,6.75
2023-03-06T14:04:07.888Z,5.80
2023-03-06T14:07:32.905Z,6.79
2023-03-06T14:11:08.791Z,8.58
2023-03-06T14:14:58.753Z,9.71
2023-03-06T14:18:27.466Z,9.78
2023-03-06T14:21:58.716Z,8.27
2023-03-06T14:25:32.281Z,7.09
2023-03-06T14:28:59.444Z,6.23
2023-03-06T14:32:44.145Z,5.74
2023-03-06T14:37:02.277Z,7.10
2023-03-06T14:41:00.131Z,8.97
2023-03-06T14:44:58.140Z,7.55
2023-03-06T14:49:00.202Z,6.37
2023-03-06T14:52:58.170Z,5.80
2023-03-06T14:56:58.181Z,7.02
2023-03-06T15:01:02.138Z,8.95
2023-03-06T15:05:06.512Z,7.80
2023-03-06T15:09:15.110Z,6.52
2023-03-06T15:13:36.049Z,5.78
2023-03-06T15:17:34.130Z,5.31
2023-03-06T15:21:37.081Z,6.77
2023-03-06T15:25:42.156Z,8.43
2023-03-06T15:29:42.097Z,7.21
2023-03-06T15:33:41.091Z,6.08
2023-03-06T15:37:42.067Z,5.40
2023-03-06T15:41:52.170Z,5.03
2023-03-06T15:45:51.211Z,6.70
2023-03-06T15:49:51.198Z,8.68
2023-03-06T15:53:49.353Z,8.87
2023-03-06T15:57:48.096Z,7.29
2023-03-06T16:01:46.024Z,6.07
2023-03-06T16:05:48.135Z,5.20
2023-03-06T16:09:47.030Z,5.23
2023-03-06T16:13:45.092Z,6.42
2023-03-06T16:17:43.031Z,7.87
2023-03-06T16:21:41.114Z,8.23
2023-03-06T16:25:40.975Z,6.72
2023-03-06T16:29:44.142Z,5.62
2023-03-06T16:33:41.990Z,4.90
2023-03-06T16:37:40.050Z,4.37
2023-03-06T16:41:37.977Z,4.25
2023-03-06T16:45:37.003Z,5.74
2023-03-06T16:49:39.055Z,7.39
2023-03-06T16:53:36.995Z,8.56
2023-03-06T16:57:38.942Z,8.71
2023-03-06T17:01:37.030Z,7.39
2023-03-06T17:05:34.918Z,6.45
2023-03-06T17:09:32.916Z,5.67
2023-03-06T17:13:31.887Z,5.16
2023-03-06T17:17:29.973Z,4.74
2023-03-06T17:21:28.938Z,4.40
2023-03-06T17:25:28.943Z,4.12
2023-03-06T17:29:26.938Z,3.86
2023-03-06T17:33:25.063Z,3.64
2023-03-06T17:37:23.018Z,4.04
2023-03-06T17:41:22.896Z,6.03
2023-03-06T17:45:20.885Z,7.38
2023-03-06T17:49:18.882Z,8.38
2023-03-06T17:53:16.881Z,8.99
2023-03-06T17:57:16.017Z,8.17
2023-03-06T18:01:13.946Z,6.98
2023-03-06T18:05:11.873Z,6.11
2023-03-06T18:09:09.814Z,5.41
2023-03-06T18:13:07.923Z,4.92
2023-03-06T18:17:05.848Z,4.46
2023-03-06T18:21:03.906Z,4.49
2023-03-06T18:25:01.890Z,5.74
2023-03-06T18:29:01.983Z,6.53
2023-03-06T18:32:59.803Z,6.86
2023-03-06T18:36:59.847Z,7.01
2023-03-06T18:40:57.792Z,8.20
2023-03-06T18:44:55.952Z,9.49
2023-03-06T18:48:55.774Z,10.11
2023-03-06T18:52:53.850Z,8.68
2023-03-06T18:56:51.785Z,7.15
2023-03-06T19:00:49.992Z,6.13
2023-03-06T19:04:50.759Z,5.27
2023-03-06T19:08:49.782Z,4.90
2023-03-06T19:12:47.967Z,6.84
2023-03-06T19:16:45.822Z,8.70
2023-03-06T19:20:43.769Z,9.78
2023-03-06T19:24:41.781Z,8.07
2023-03-06T19:28:42.952Z,6.35
2023-03-06T19:32:41.945Z,6.00
2023-03-06T19:36:41.737Z,7.99
2023-03-06T19:40:39.907Z,9.08
2023-03-06T19:44:37.722Z,9.44
2023-03-06T19:48:35.833Z,8.04
2023-03-06T19:52:33.694Z,6.39
2023-03-06T19:56:35.895Z,5.97
2023-03-06T20:00:33.894Z,7.47
2023-03-06T20:04:31.852Z,8.37
2023-03-06T20:08:29.792Z,8.78
2023-03-06T20:12:27.775Z,9.06
2023-03-06T20:16:25.657Z,8.80
2023-03-06T20:20:24.721Z,7.14
2023-03-06T20:24:25.739Z,5.79
2023-03-06T20:28:23.889Z,4.86
2023-03-06T20:32:21.645Z,5.17
2023-03-06T20:36:31.693Z,5.99
2023-03-06T20:40:29.839Z,5.88
2023-03-06T20:44:32.675Z,5.83
2023-03-06T20:48:30.646Z,5.85
2023-03-06T20:52:30.618Z,5.81
2023-03-06T20:56:30.622Z,5.70
2023-03-06T21:00:29.629Z,5.57
2023-03-06T21:04:29.613Z,5.42
2023-03-06T21:08:34.597Z,5.58
2023-03-06T21:12:32.621Z,5.56
2023-03-06T21:16:33.640Z,5.42
2023-03-06T21:20:32.628Z,5.17
2023-03-06T21:24:31.618Z,4.97
2023-03-06T21:28:29.714Z,4.78
2023-03-06T21:32:27.723Z,4.61
2023-03-06T21:36:25.670Z,4.61
2023-03-06T21:40:24.575Z,4.31
2023-03-06T21:44:22.559Z,4.36
2023-03-06T21:48:20.590Z,4.14
2023-03-06T21:52:18.539Z,3.98
2023-03-06T21:56:16.689Z,4.00
2023-03-06T22:00:15.590Z,3.98
2023-03-06T22:04:13.606Z,3.89
2023-03-06T22:08:11.553Z,3.77
2023-03-06T22:12:09.624Z,3.67
2023-03-06T22:16:08.534Z,3.66
2023-03-06T22:20:07.528Z,3.72
2023-03-06T22:24:06.539Z,3.68
2023-03-06T22:28:05.534Z,3.65
2023-03-06T22:32:03.644Z,3.70
2023-03-06T22:36:01.681Z,3.66
2023-03-06T22:39:59.480Z,3.60
2023-03-06T22:43:57.547Z,3.61
2023-03-06T22:48:05.512Z,3.63
2023-03-06T22:52:07.582Z,3.69
2023-03-06T22:56:05.522Z,3.70
2023-03-06T23:00:03.493Z,3.72
2023-03-06T23:04:06.448Z,3.73
2023-03-06T23:08:04.469Z,3.78
2023-03-06T23:12:03.377Z,3.81
2023-03-06T23:16:20.467Z,3.84
2023-03-06T23:20:36.413Z,3.85
2023-03-06T23:24:52.440Z,3.83
2023-03-06T23:28:50.504Z,3.73
2023-03-06T23:32:48.458Z,3.57
2023-03-06T23:36:46.443Z,3.44
2023-03-06T23:40:45.542Z,3.38
2023-03-06T23:44:43.399Z,3.30
2023-03-06T23:48:41.429Z,3.15
2023-03-06T23:52:39.383Z,3.15
2023-03-06T23:56:38.480Z,3.16
